Time;durP1;ratioP1;P1;durP2;ratioP2;P2;SDS_P1;SDS_P2;PMS_P1;PMS_P2;Temp;Humidity;BMP_temperature;BMP_pressure;BME280_temperature;BME280_humidity;BME280_pressure;Samples;Min_cycle;Max_cycle;Signal;HPM_P1;HPM_P2
2023/09/05 00:01:29;;;;;;;;;;;18.10;99.90;;;;;;5070732;28;19959;-70
2023/09/05 00:03:56;;;;;;;;;;;18.10;99.90;;;;;;5070288;28;19925;-70
2023/09/05 00:06:24;;;;;;;;;;;18.10;99.90;;;;;;5069988;28;19924;-70
2023/09/05 00:08:49;;;;;;;;;;;18.10;99.90;;;;;;5070284;28;20852;-71
2023/09/05 00:11:15;;;;;;;;;;;18.10;99.90;;;;;;5057883;28;19924;-70
2023/09/05 00:13:40;;;;;;;;;;;18.00;99.90;;;;;;5056977;28;20007;-70
2023/09/05 00:16:06;;;;;;;;;;;18.00;99.90;;;;;;5071030;28;19986;-70
2023/09/05 00:18:31;;;;;;;;;;;18.00;99.90;;;;;;5069084;28;20706;-70
2023/09/05 00:20:57;;;;;;;;;;;18.00;99.90;;;;;;5070147;28;19977;-70
2023/09/05 00:23:23;;;;;;;;;;;18.10;99.90;;;;;;5052178;28;19924;-70
2023/09/05 00:25:48;;;;;;;;;;;18.00;99.90;;;;;;5057471;28;19925;-70
2023/09/05 00:28:14;;;;;;;;;;;18.00;99.90;;;;;;5074614;28;19924;-71
2023/09/05 00:30:39;;;;;;;;;;;17.90;99.90;;;;;;5088284;28;19923;-70
2023/09/05 00:33:05;;;;;;;;;;;17.90;99.90;;;;;;5069534;28;19932;-71
2023/09/05 00:35:30;;;;;;;;;;;17.80;99.90;;;;;;5081491;28;19924;-70
2023/09/05 00:37:57;;;;;;;;;;;17.80;99.90;;;;;;5088572;28;19928;-70
2023/09/05 00:40:23;;;;;;;;;;;17.70;99.90;;;;;;5088535;28;19973;-70
2023/09/05 00:42:49;;;;;;;;;;;17.70;99.90;;;;;;5082084;28;20010;-71
2023/09/05 00:45:14;;;;;;;;;;;17.70;99.90;;;;;;5081097;28;19924;-70
2023/09/05 00:47:40;;;;;;;;;;;17.60;99.90;;;;;;5082069;28;19932;-70
2023/09/05 00:50:07;;;;;;;;;;;17.60;99.90;;;;;;5068882;28;19932;-70
2023/09/05 00:52:33;;;;;;;;;;;17.60;99.90;;;;;;5087452;28;19931;-70
2023/09/05 00:54:58;;;;;;;;;;;17.50;99.90;;;;;;5088545;28;19931;-70
2023/09/05 00:57:24;;;;;;;;;;;17.50;99.90;;;;;;5068357;28;19924;-70
2023/09/05 00:59:50;;;;;;;;;;;17.50;99.90;;;;;;5069016;28;19930;-70
2023/09/05 01:02:15;;;;;;;;;;;17.50;99.90;;;;;;5056126;28;19924;-71
2023/09/05 01:04:44;;;;;;;;;;;17.40;99.90;;;;;;5076492;28;19932;-70
2023/09/05 01:07:27;;;;;;;;;;;17.40;99.90;;;;;;5068663;28;19928;-70
2023/09/05 01:09:54;;;;;;;;;;;17.40;99.90;;;;;;5067478;28;20295;-70
2023/09/05 01:12:20;;;;;;;;;;;17.30;99.90;;;;;;5068269;28;20478;-71
2023/09/05 01:14:45;;;;;;;;;;;17.30;99.90;;;;;;5067533;28;19982;-71
2023/09/05 01:17:11;;;;;;;;;;;17.30;99.90;;;;;;5069432;28;19925;-71
2023/09/05 01:19:40;;;;;;;;;;;17.20;99.90;;;;;;5069533;28;19931;-71
2023/09/05 01:22:12;;;;;;;;;;;17.20;99.90;;;;;;5051817;28;19924;-71
2023/09/05 01:24:38;;;;;;;;;;;17.10;99.90;;;;;;5070991;28;19924;-71
2023/09/05 01:27:04;;;;;;;;;;;17.10;99.90;;;;;;5071132;28;19931;-71
2023/09/05 01:29:34;;;;;;;;;;;17.00;99.90;;;;;;5069842;28;20383;-70
2023/09/05 01:32:01;;;;;;;;;;;17.00;99.90;;;;;;5073466;28;20338;-70
2023/09/05 01:34:26;;;;;;;;;;;16.90;1.00;;;;;;5075359;28;19964;-70
2023/09/05 01:36:51;;;;;;;;;;;16.90;1.00;;;;;;5064506;28;19971;-70
2023/09/05 01:39:17;;;;;;;;;;;16.90;1.00;;;;;;5074619;28;20011;-70
2023/09/05 01:41:42;;;;;;;;;;;16.80;1.00;;;;;;5073774;28;19925;-71
2023/09/05 01:44:08;;;;;;;;;;;16.80;1.00;;;;;;5076255;28;20623;-71
2023/09/05 01:46:34;;;;;;;;;;;16.80;1.00;;;;;;5075169;28;20407;-71
2023/09/05 01:48:59;;;;;;;;;;;16.80;1.00;;;;;;5075677;28;19936;-71
2023/09/05 01:51:25;;;;;;;;;;;16.80;1.00;;;;;;5076971;28;19991;-71
2023/09/05 01:53:50;;;;;;;;;;;16.70;1.00;;;;;;5073330;28;19925;-71
2023/09/05 01:56:16;;;;;;;;;;;16.70;1.00;;;;;;5074825;28;20735;-71
2023/09/05 01:58:41;;;;;;;;;;;16.70;1.00;;;;;;5074724;28;19936;-71
2023/09/05 02:01:07;;;;;;;;;;;16.70;1.00;;;;;;5075123;28;19950;-71
2023/09/05 02:03:32;;;;;;;;;;;16.70;1.00;;;;;;5073186;28;19930;-71
2023/09/05 02:05:58;;;;;;;;;;;16.70;1.00;;;;;;5073119;28;19931;-71
2023/09/05 02:08:23;;;;;;;;;;;16.70;1.00;;;;;;5073181;28;19925;-71
2023/09/05 02:10:49;;;;;;;;;;;16.70;1.00;;;;;;5073516;28;20015;-71
2023/09/05 02:13:14;;;;;;;;;;;16.70;1.00;;;;;;5065865;28;19975;-71
2023/09/05 02:15:42;;;;;;;;;;;16.70;1.00;;;;;;5070553;28;20359;-71
2023/09/05 02:18:10;;;;;;;;;;;16.80;1.00;;;;;;5072947;28;20425;-71
2023/09/05 02:20:36;;;;;;;;;;;16.70;1.00;;;;;;5075672;28;20386;-71
2023/09/05 02:23:02;;;;;;;;;;;16.70;1.00;;;;;;5074239;28;20409;-71
2023/09/05 02:25:28;;;;;;;;;;;16.70;1.00;;;;;;5074956;28;19932;-71
2023/09/05 02:27:53;;;;;;;;;;;16.70;1.00;;;;;;5074453;28;19925;-70
2023/09/05 02:30:19;;;;;;;;;;;16.70;1.00;;;;;;5075560;28;19928;-71
2023/09/05 02:32:49;;;;;;;;;;;16.70;1.00;;;;;;5074008;28;20016;-70
2023/09/05 02:35:16;;;;;;;;;;;16.70;1.00;;;;;;5073508;28;19950;-71
2023/09/05 02:37:41;;;;;;;;;;;16.70;1.00;;;;;;5072270;28;19924;-71
2023/09/05 02:40:07;;;;;;;;;;;16.70;1.00;;;;;;5076008;28;19931;-71
2023/09/05 02:42:33;;;;;;;;;;;16.60;1.00;;;;;;5063517;28;19925;-70
2023/09/05 02:44:58;;;;;;;;;;;16.70;1.00;;;;;;5071798;28;19923;-71
2023/09/05 02:47:24;;;;;;;;;;;16.70;1.00;;;;;;5072275;28;20807;-71
2023/09/05 02:49:49;;;;;;;;;;;16.70;1.00;;;;;;5075402;28;19934;-71
2023/09/05 02:52:15;;;;;;;;;;;16.60;1.00;;;;;;5073971;28;19932;-71
2023/09/05 02:54:40;;;;;;;;;;;16.70;1.00;;;;;;5064687;28;19947;-71
2023/09/05 02:57:06;;;;;;;;;;;16.70;1.00;;;;;;5073957;28;19986;-71
2023/09/05 02:59:32;;;;;;;;;;;16.70;1.00;;;;;;5073769;28;19928;-70
2023/09/05 03:01:57;;;;;;;;;;;16.70;1.00;;;;;;5074606;28;20115;-71
2023/09/05 03:04:23;;;;;;;;;;;16.60;1.00;;;;;;5073586;28;19928;-71
2023/09/05 03:06:49;;;;;;;;;;;16.60;1.00;;;;;;5073719;28;20279;-71
2023/09/05 03:09:15;;;;;;;;;;;16.60;1.00;;;;;;5074089;28;19932;-71
2023/09/05 03:11:40;;;;;;;;;;;16.60;1.00;;;;;;5055883;28;19931;-71
2023/09/05 03:14:05;;;;;;;;;;;16.50;1.00;;;;;;5073614;28;19939;-71
2023/09/05 03:16:31;;;;;;;;;;;16.50;1.00;;;;;;5071784;28;19924;-71
2023/09/05 03:18:59;;;;;;;;;;;16.50;1.00;;;;;;5071684;28;19929;-71
2023/09/05 03:21:25;;;;;;;;;;;16.50;1.00;;;;;;5084301;28;19928;-71
2023/09/05 03:23:51;;;;;;;;;;;16.40;1.00;;;;;;5072757;28;19924;-71
2023/09/05 03:26:17;;;;;;;;;;;16.40;1.00;;;;;;5073555;28;19925;-71
2023/09/05 03:28:44;;;;;;;;;;;16.30;1.00;;;;;;5074720;28;19939;-71
2023/09/05 03:31:10;;;;;;;;;;;16.40;1.00;;;;;;5063417;28;20012;-71
2023/09/05 03:33:35;;;;;;;;;;;16.40;1.00;;;;;;5073951;28;20046;-71
2023/09/05 03:36:01;;;;;;;;;;;16.40;1.00;;;;;;5063952;28;20013;-70
2023/09/05 03:38:27;;;;;;;;;;;16.40;1.00;;;;;;5075721;28;19924;-71
2023/09/05 03:40:56;;;;;;;;;;;16.40;1.00;;;;;;5066039;28;19925;-71
2023/09/05 03:43:21;;;;;;;;;;;16.40;1.00;;;;;;5072343;28;19924;-71
2023/09/05 03:45:48;;;;;;;;;;;16.40;1.00;;;;;;5073334;28;19931;-71
2023/09/05 03:48:13;;;;;;;;;;;16.40;1.00;;;;;;5075247;28;19935;-71
2023/09/05 03:50:39;;;;;;;;;;;16.40;1.00;;;;;;5064879;28;20489;-71
2023/09/05 03:53:05;;;;;;;;;;;16.40;1.00;;;;;;5069576;28;19924;-71
2023/09/05 03:55:34;;;;;;;;;;;16.40;1.00;;;;;;5073185;28;19935;-71
2023/09/05 03:58:04;;;;;;;;;;;16.30;1.00;;;;;;5075884;28;19924;-71
2023/09/05 04:00:32;;;;;;;;;;;16.30;1.00;;;;;;5074092;28;19936;-71
2023/09/05 04:02:57;;;;;;;;;;;16.30;1.00;;;;;;5077539;28;19989;-71
2023/09/05 04:05:23;;;;;;;;;;;16.20;1.00;;;;;;5074887;28;19924;-71
2023/09/05 04:07:48;;;;;;;;;;;16.20;1.00;;;;;;5076572;28;20038;-71
2023/09/05 04:10:14;;;;;;;;;;;16.20;1.00;;;;;;5062852;28;19932;-71
2023/09/05 04:12:39;;;;;;;;;;;16.20;1.00;;;;;;5077591;28;19987;-71
2023/09/05 04:15:05;;;;;;;;;;;16.20;1.00;;;;;;5074374;28;19924;-71
2023/09/05 04:17:31;;;;;;;;;;;16.20;1.00;;;;;;5070495;28;19943;-71
2023/09/05 04:19:56;;;;;;;;;;;16.20;1.00;;;;;;5070392;28;19951;-71
2023/09/05 04:22:24;;;;;;;;;;;16.10;1.00;;;;;;5070103;28;19982;-71
2023/09/05 04:24:53;;;;;;;;;;;16.10;1.00;;;;;;5070011;28;20317;-71
2023/09/05 04:27:21;;;;;;;;;;;16.10;1.00;;;;;;5065098;28;19932;-69
2023/09/05 04:29:51;;;;;;;;;;;16.10;1.00;;;;;;5067123;28;19925;-70
2023/09/05 04:32:26;;;;;;;;;;;16.10;1.00;;;;;;5069908;28;20692;-71
2023/09/05 04:34:54;;;;;;;;;;;16.10;1.00;;;;;;5078002;28;19973;-71
2023/09/05 04:37:19;;;;;;;;;;;16.00;1.00;;;;;;5057870;28;19925;-71
2023/09/05 04:39:45;;;;;;;;;;;16.00;1.00;;;;;;5069374;28;19932;-71
2023/09/05 04:42:10;;;;;;;;;;;15.90;1.00;;;;;;5070240;28;20467;-71
2023/09/05 04:44:36;;;;;;;;;;;15.90;1.00;;;;;;5070472;28;20403;-71
2023/09/05 04:47:20;;;;;;;;;;;15.90;1.00;;;;;;5076791;28;19929;-71
2023/09/05 04:49:49;;;;;;;;;;;15.80;1.00;;;;;;5072075;28;19948;-70
2023/09/05 04:52:16;;;;;;;;;;;15.80;1.00;;;;;;5079253;28;19931;-71
2023/09/05 04:54:41;;;;;;;;;;;15.70;1.00;;;;;;5070238;28;20076;-71
2023/09/05 04:57:07;;;;;;;;;;;15.70;1.00;;;;;;5069519;28;20091;-71
2023/09/05 04:59:32;;;;;;;;;;;15.60;1.00;;;;;;5070449;28;19925;-71
2023/09/05 05:01:58;;;;;;;;;;;15.60;1.00;;;;;;5069486;28;19924;-71
2023/09/05 05:04:23;;;;;;;;;;;15.60;1.00;;;;;;5069090;28;19925;-71
2023/09/05 05:06:49;;;;;;;;;;;15.60;1.00;;;;;;5069435;28;19928;-71
2023/09/05 05:09:14;;;;;;;;;;;15.60;1.00;;;;;;5069047;28;20303;-71
2023/09/05 05:11:40;;;;;;;;;;;15.50;1.00;;;;;;5069598;28;19925;-71
2023/09/05 05:14:05;;;;;;;;;;;15.60;1.00;;;;;;5073037;28;19924;-71
2023/09/05 05:16:31;;;;;;;;;;;15.50;1.00;;;;;;5076721;28;19925;-71
2023/09/05 05:18:56;;;;;;;;;;;15.60;1.00;;;;;;5069766;28;19932;-71
2023/09/05 05:21:22;;;;;;;;;;;15.50;1.00;;;;;;5069274;28;20349;-71
2023/09/05 05:23:48;;;;;;;;;;;15.60;1.00;;;;;;5069839;28;19932;-71
2023/09/05 05:26:13;;;;;;;;;;;15.50;1.00;;;;;;5069919;28;19974;-71
2023/09/05 05:28:39;;;;;;;;;;;15.50;1.00;;;;;;5069403;28;19986;-71
2023/09/05 05:31:11;;;;;;;;;;;15.50;1.00;;;;;;5069374;28;20350;-71
2023/09/05 05:33:37;;;;;;;;;;;15.60;1.00;;;;;;5069629;28;19924;-71
2023/09/05 05:36:02;;;;;;;;;;;15.60;1.00;;;;;;5069488;28;19931;-70
2023/09/05 05:38:28;;;;;;;;;;;15.70;1.00;;;;;;5070458;28;20410;-71
2023/09/05 05:40:53;;;;;;;;;;;15.70;1.00;;;;;;5067586;28;19925;-71
2023/09/05 05:43:20;;;;;;;;;;;15.70;1.00;;;;;;5058173;28;20716;-71
2023/09/05 05:45:51;;;;;;;;;;;15.80;1.00;;;;;;5069121;28;19977;-71
2023/09/05 05:48:17;;;;;;;;;;;15.80;1.00;;;;;;5068927;28;20024;-71
2023/09/05 05:50:42;;;;;;;;;;;15.80;1.00;;;;;;5070461;28;20019;-71
2023/09/05 05:53:08;;;;;;;;;;;15.90;1.00;;;;;;5071293;28;19933;-71
2023/09/05 05:55:33;;;;;;;;;;;15.90;1.00;;;;;;5069311;28;19960;-71
2023/09/05 05:58:00;;;;;;;;;;;16.00;1.00;;;;;;5070363;28;19976;-71
2023/09/05 06:00:27;;;;;;;;;;;16.00;1.00;;;;;;5068898;28;19928;-71
2023/09/05 06:02:52;;;;;;;;;;;16.10;1.00;;;;;;5069746;28;19932;-71
2023/09/05 06:05:18;;;;;;;;;;;16.20;1.00;;;;;;5070203;28;19974;-71
2023/09/05 06:07:43;;;;;;;;;;;16.20;1.00;;;;;;5070680;28;19925;-70
2023/09/05 06:10:09;;;;;;;;;;;16.30;1.00;;;;;;5068647;28;19929;-71
2023/09/05 06:12:35;;;;;;;;;;;16.30;1.00;;;;;;5070202;28;20014;-71
2023/09/05 06:15:00;;;;;;;;;;;16.40;1.00;;;;;;5069621;28;19924;-71
2023/09/05 06:17:26;;;;;;;;;;;16.40;1.00;;;;;;5073752;28;20035;-71
2023/09/05 06:19:51;;;;;;;;;;;16.50;1.00;;;;;;5074356;28;20357;-71
2023/09/05 06:22:18;;;;;;;;;;;16.50;1.00;;;;;;5075125;28;19981;-71
2023/09/05 06:24:43;;;;;;;;;;;16.60;1.00;;;;;;5074346;28;20355;-71
2023/09/05 06:27:09;;;;;;;;;;;16.60;1.00;;;;;;5074397;28;19935;-71
2023/09/05 06:29:35;;;;;;;;;;;16.70;1.00;;;;;;5072682;28;19930;-71
2023/09/05 06:32:00;;;;;;;;;;;16.80;1.00;;;;;;5060385;28;20387;-71
2023/09/05 06:34:26;;;;;;;;;;;16.80;1.00;;;;;;5072559;28;19924;-71
2023/09/05 06:36:52;;;;;;;;;;;16.80;1.00;;;;;;5072804;28;20015;-71
2023/09/05 06:39:18;;;;;;;;;;;16.90;1.00;;;;;;5072954;28;19924;-71
2023/09/05 06:41:43;;;;;;;;;;;17.00;1.00;;;;;;5072942;28;20297;-71
2023/09/05 06:44:09;;;;;;;;;;;17.10;1.00;;;;;;5072580;28;19956;-71
2023/09/05 06:46:35;;;;;;;;;;;17.10;1.00;;;;;;5072333;28;20287;-71
2023/09/05 06:49:01;;;;;;;;;;;17.20;1.00;;;;;;5072498;28;19924;-71
2023/09/05 06:51:27;;;;;;;;;;;17.30;1.00;;;;;;5072097;28;19978;-71
2023/09/05 06:53:52;;;;;;;;;;;17.40;1.00;;;;;;5071940;28;19928;-71
2023/09/05 06:56:19;;;;;;;;;;;17.50;1.00;;;;;;5072275;28;20353;-71
2023/09/05 06:58:45;;;;;;;;;;;17.50;1.00;;;;;;5072494;28;20015;-71
2023/09/05 07:01:12;;;;;;;;;;;17.60;1.00;;;;;;5072789;28;20363;-71
2023/09/05 07:03:38;;;;;;;;;;;17.70;1.00;;;;;;5063943;28;19966;-71
2023/09/05 07:06:03;;;;;;;;;;;17.70;1.00;;;;;;5071295;28;20351;-71
2023/09/05 07:08:29;;;;;;;;;;;17.70;1.00;;;;;;5071619;28;19939;-71
2023/09/05 07:10:55;;;;;;;;;;;17.70;1.00;;;;;;5071203;28;20611;-71
2023/09/05 07:13:20;;;;;;;;;;;17.80;1.00;;;;;;5069208;28;20015;-71
2023/09/05 07:15:46;;;;;;;;;;;17.90;1.00;;;;;;5081354;28;20007;-71
2023/09/05 07:18:12;;;;;;;;;;;17.90;1.00;;;;;;5072893;28;19964;-71
2023/09/05 07:20:38;;;;;;;;;;;18.00;1.00;;;;;;5072702;28;19998;-71
2023/09/05 07:23:04;;;;;;;;;;;18.00;1.00;;;;;;5062870;28;19932;-71
2023/09/05 07:25:29;;;;;;;;;;;18.10;1.00;;;;;;5073618;28;19935;-71
2023/09/05 07:27:55;;;;;;;;;;;18.10;1.00;;;;;;5063457;28;19929;-71
2023/09/05 07:30:20;;;;;;;;;;;18.20;1.00;;;;;;5069632;28;20886;-71
2023/09/05 07:32:46;;;;;;;;;;;18.20;1.00;;;;;;5072345;28;20496;-71
2023/09/05 07:35:11;;;;;;;;;;;18.30;1.00;;;;;;5075212;28;20334;-71
2023/09/05 07:37:38;;;;;;;;;;;18.40;1.00;;;;;;5073293;28;20026;-71
2023/09/05 07:40:05;;;;;;;;;;;18.50;1.00;;;;;;5075488;28;20343;-71
2023/09/05 07:42:31;;;;;;;;;;;18.50;1.00;;;;;;5073315;28;19925;-71
2023/09/05 07:44:56;;;;;;;;;;;18.70;1.00;;;;;;5070874;28;19932;-71
2023/09/05 07:47:22;;;;;;;;;;;18.70;1.00;;;;;;5070919;28;19978;-71
2023/09/05 07:49:47;;;;;;;;;;;18.80;1.00;;;;;;5067389;28;19925;-71
2023/09/05 07:52:13;;;;;;;;;;;18.90;1.00;;;;;;5074339;28;19934;-71
2023/09/05 07:54:39;;;;;;;;;;;18.90;1.00;;;;;;5076963;28;19931;-71
2023/09/05 07:57:04;;;;;;;;;;;19.00;1.00;;;;;;5074691;28;19924;-71
2023/09/05 07:59:31;;;;;;;;;;;19.00;1.00;;;;;;5077597;28;19928;-71
2023/09/05 08:01:57;;;;;;;;;;;19.10;1.00;;;;;;5042731;28;20004;-71
2023/09/05 08:04:22;;;;;;;;;;;19.20;1.00;;;;;;5070417;28;20015;-71
2023/09/05 08:06:48;;;;;;;;;;;19.20;1.00;;;;;;5070986;28;19967;-71
2023/09/05 08:09:14;;;;;;;;;;;19.30;1.00;;;;;;5071202;28;20310;-71
2023/09/05 08:11:39;;;;;;;;;;;19.40;1.00;;;;;;5052778;28;19935;-71
2023/09/05 08:14:05;;;;;;;;;;;19.50;1.00;;;;;;5069748;28;19925;-71
2023/09/05 08:16:31;;;;;;;;;;;19.60;1.00;;;;;;5070573;28;19924;-71
2023/09/05 08:18:56;;;;;;;;;;;19.70;1.00;;;;;;5069974;28;19939;-71
2023/09/05 08:21:22;;;;;;;;;;;19.80;1.00;;;;;;5071471;28;19935;-71
2023/09/05 08:23:49;;;;;;;;;;;19.90;1.00;;;;;;5071503;28;20271;-71
2023/09/05 08:26:16;;;;;;;;;;;19.90;1.00;;;;;;5069187;28;19925;-71
2023/09/05 08:28:43;;;;;;;;;;;20.00;99.90;;;;;;5072210;28;19932;-71
2023/09/05 08:31:13;;;;;;;;;;;20.10;99.90;;;;;;5059927;28;19932;-71
2023/09/05 08:33:39;;;;;;;;;;;20.20;99.90;;;;;;5072795;28;19935;-71
2023/09/05 08:36:05;;;;;;;;;;;20.30;99.90;;;;;;5063895;28;19928;-71
2023/09/05 08:38:31;;;;;;;;;;;20.50;99.90;;;;;;5075453;28;19932;-71
2023/09/05 08:41:00;;;;;;;;;;;20.50;99.90;;;;;;5072986;28;20027;-71
2023/09/05 08:43:26;;;;;;;;;;;20.70;99.90;;;;;;5077445;28;20007;-71
2023/09/05 08:45:53;;;;;;;;;;;20.80;99.90;;;;;;5073988;28;20027;-71
2023/09/05 08:48:18;;;;;;;;;;;20.90;99.90;;;;;;5077655;28;20001;-71
2023/09/05 08:50:44;;;;;;;;;;;21.00;99.90;;;;;;5072922;28;19975;-71
2023/09/05 08:53:14;;;;;;;;;;;21.10;99.90;;;;;;5076901;28;19981;-70
2023/09/05 08:55:40;;;;;;;;;;;21.30;99.90;;;;;;5055052;28;19924;-71
2023/09/05 08:58:10;;;;;;;;;;;21.40;99.90;;;;;;5055821;28;19931;-71
2023/09/05 09:00:36;;;;;;;;;;;21.50;53.50;;;;;;5074200;28;20478;-71
2023/09/05 09:03:03;;;;;;;;;;;21.60;1.00;;;;;;5069461;28;19925;-71
2023/09/05 09:05:29;;;;;;;;;;;21.70;99.90;;;;;;5069754;28;19932;-71
2023/09/05 09:07:54;;;;;;;;;;;21.80;1.00;;;;;;5071163;28;19924;-71
2023/09/05 09:10:20;;;;;;;;;;;21.80;1.00;;;;;;5067179;28;20394;-71
2023/09/05 09:12:49;;;;;;;;;;;21.90;96.00;;;;;;5068378;28;20015;-71
2023/09/05 09:15:15;;;;;;;;;;;22.10;99.90;;;;;;5067272;28;19931;-71
2023/09/05 09:17:41;;;;;;;;;;;22.30;99.90;;;;;;5073763;28;20003;-71
2023/09/05 09:20:12;;;;;;;;;;;22.60;99.90;;;;;;5069356;28;19931;-71
2023/09/05 09:22:41;;;;;;;;;;;23.40;1.00;;;;;;5069060;28;19994;-71
2023/09/05 09:25:10;;;;;;;;;;;24.50;99.90;;;;;;5069306;28;19925;-72
2023/09/05 09:27:36;;;;;;;;;;;25.30;99.90;;;;;;5063823;28;20007;-72
2023/09/05 09:30:06;;;;;;;;;;;26.10;99.90;;;;;;5062884;28;20007;-71
2023/09/05 09:32:32;;;;;;;;;;;26.70;1.00;;;;;;5068947;28;19928;-72
2023/09/05 09:34:58;;;;;;;;;;;27.40;1.00;;;;;;5058461;28;19936;-72
2023/09/05 09:37:24;;;;;;;;;;;27.80;99.90;;;;;;5060147;28;19924;-72
2023/09/05 09:39:56;;;;;;;;;;;28.20;99.90;;;;;;5071566;28;19999;-72
2023/09/05 09:42:23;;;;;;;;;;;28.60;19.20;;;;;;5069388;28;20612;-70
2023/09/05 09:44:49;;;;;;;;;;;29.00;1.00;;;;;;5074103;28;19925;-70
2023/09/05 09:47:17;;;;;;;;;;;29.30;1.00;;;;;;5069885;28;19932;-70
2023/09/05 09:49:45;;;;;;;;;;;29.70;1.00;;;;;;5072338;28;19924;-70
2023/09/05 09:52:12;;;;;;;;;;;30.00;99.90;;;;;;5072198;28;19924;-70
2023/09/05 09:54:38;;;;;;;;;;;30.20;99.90;;;;;;5063597;28;19936;-70
2023/09/05 09:57:04;;;;;;;;;;;30.40;99.90;;;;;;5071887;28;19975;-70
2023/09/05 09:59:37;;;;;;;;;;;30.70;99.90;;;;;;5069048;28;19928;-70
2023/09/05 10:02:12;;;;;;;;;;;30.90;99.90;;;;;;5072928;28;19924;-70
2023/09/05 10:04:37;;;;;;;;;;;31.10;99.90;;;;;;5064431;28;19933;-71
2023/09/05 10:07:06;;;;;;;;;;;31.30;99.90;;;;;;5072739;28;19924;-71
2023/09/05 10:09:36;;;;;;;;;;;31.50;99.90;;;;;;5071727;28;20704;-71
2023/09/05 10:12:02;;;;;;;;;;;31.50;99.90;;;;;;5065574;28;19924;-71
2023/09/05 10:14:30;;;;;;;;;;;31.50;99.90;;;;;;5072217;28;19924;-71
2023/09/05 10:16:56;;;;;;;;;;;31.70;99.90;;;;;;5077889;28;19931;-71
2023/09/05 10:19:22;;;;;;;;;;;32.00;99.90;;;;;;5073432;28;19929;-71
2023/09/05 10:21:49;;;;;;;;;;;32.10;99.90;;;;;;5063765;28;19925;-71
2023/09/05 10:24:15;;;;;;;;;;;32.10;99.90;;;;;;5074632;28;19960;-71
2023/09/05 10:26:41;;;;;;;;;;;32.30;99.90;;;;;;5075107;28;19929;-71
2023/09/05 10:29:25;;;;;;;;;;;32.40;99.90;;;;;;5076893;28;20405;-72
2023/09/05 10:31:51;;;;;;;;;;;32.50;99.90;;;;;;5074537;28;19925;-71
2023/09/05 10:34:16;;;;;;;;;;;32.40;99.90;;;;;;5074473;28;19931;-71
2023/09/05 10:36:42;;;;;;;;;;;32.40;99.90;;;;;;5076483;28;19924;-71
2023/09/05 10:39:18;;;;;;;;;;;32.40;99.90;;;;;;5074708;28;21071;-71
2023/09/05 10:41:43;;;;;;;;;;;32.40;99.90;;;;;;5075640;28;20353;-72
2023/09/05 10:44:09;;;;;;;;;;;32.50;99.90;;;;;;5064538;28;19936;-71
2023/09/05 10:46:35;;;;;;;;;;;32.70;99.90;;;;;;5075569;28;20616;-71
2023/09/05 10:49:10;;;;;;;;;;;32.80;99.90;;;;;;5074488;28;19931;-71
2023/09/05 10:51:36;;;;;;;;;;;33.00;99.90;;;;;;5074270;28;20390;-71
2023/09/05 10:54:20;;;;;;;;;;;33.10;99.90;;;;;;5072210;28;19931;-71
2023/09/05 10:56:45;;;;;;;;;;;33.30;99.90;;;;;;5052272;28;20422;-71
2023/09/05 10:59:24;;;;;;;;;;;33.50;99.90;;;;;;5071704;28;20019;-71
2023/09/05 11:01:54;;;;;;;;;;;33.60;99.90;;;;;;5072215;28;19976;-71
2023/09/05 11:04:21;;;;;;;;;;;33.60;99.90;;;;;;5072505;28;20015;-71
2023/09/05 11:06:54;;;;;;;;;;;33.50;99.90;;;;;;5062231;28;20035;-72
2023/09/05 11:09:20;;;;;;;;;;;33.60;99.90;;;;;;5062220;28;19924;-71
2023/09/05 11:11:45;;;;;;;;;;;33.60;99.90;;;;;;5068532;28;19978;-71
2023/09/05 11:14:11;;;;;;;;;;;33.80;99.90;;;;;;5072548;28;20398;-72
2023/09/05 11:16:49;;;;;;;;;;;34.00;99.90;;;;;;5072318;28;20402;-71
2023/09/05 11:19:35;;;;;;;;;;;34.00;99.90;;;;;;5070677;28;19924;-71
2023/09/05 11:22:05;;;;;;;;;;;34.00;99.90;;;;;;5071631;28;19924;-71
2023/09/05 11:24:31;;;;;;;;;;;33.90;99.90;;;;;;5071646;28;19925;-71
2023/09/05 11:26:57;;;;;;;;;;;33.90;99.90;;;;;;5071256;28;19970;-71
2023/09/05 11:29:24;;;;;;;;;;;34.00;99.90;;;;;;5061167;28;19972;-72
2023/09/05 11:31:51;;;;;;;;;;;34.20;99.90;;;;;;5073876;28;19924;-71
2023/09/05 11:34:17;;;;;;;;;;;34.40;99.90;;;;;;5065642;28;19925;-72
2023/09/05 11:36:44;;;;;;;;;;;34.70;99.90;;;;;;5071443;28;19958;-71
2023/09/05 11:39:10;;;;;;;;;;;34.90;99.90;;;;;;5066943;28;19924;-71
2023/09/05 11:41:41;;;;;;;;;;;35.00;99.90;;;;;;5071722;28;20298;-72
2023/09/05 11:44:07;;;;;;;;;;;35.00;99.90;;;;;;5061829;28;20366;-72
2023/09/05 11:46:35;;;;;;;;;;;35.00;99.90;;;;;;5062453;28;19931;-72
2023/09/05 11:49:01;;;;;;;;;;;35.00;99.90;;;;;;5071355;28;19980;-72
2023/09/05 11:51:27;;;;;;;;;;;35.00;99.90;;;;;;5076763;28;19975;-72
2023/09/05 11:53:53;;;;;;;;;;;35.10;99.90;;;;;;5071199;28;19924;-72
2023/09/05 11:56:18;;;;;;;;;;;35.10;99.90;;;;;;5071495;28;19932;-72
2023/09/05 11:58:45;;;;;;;;;;;34.90;99.90;;;;;;5070579;28;19928;-71
2023/09/05 12:01:10;;;;;;;;;;;34.70;99.90;;;;;;5063808;28;20011;-72
2023/09/05 12:03:36;;;;;;;;;;;34.50;99.90;;;;;;5071161;28;20008;-72
2023/09/05 12:06:02;;;;;;;;;;;34.40;99.90;;;;;;5070178;28;20015;-72
2023/09/05 12:08:30;;;;;;;;;;;34.30;99.90;;;;;;5070159;28;19925;-71
2023/09/05 12:10:57;;;;;;;;;;;34.50;99.90;;;;;;5079537;28;20007;-72
2023/09/05 12:13:46;;;;;;;;;;;34.60;99.90;;;;;;5070735;28;19924;-72
2023/09/05 12:16:17;;;;;;;;;;;34.90;99.90;;;;;;5063050;28;19978;-72
2023/09/05 12:18:42;;;;;;;;;;;35.00;99.90;;;;;;5071737;28;19970;-71
2023/09/05 12:21:08;;;;;;;;;;;35.10;99.90;;;;;;5071940;28;19924;-72
2023/09/05 12:23:33;;;;;;;;;;;34.90;99.90;;;;;;5069711;28;19924;-72
2023/09/05 12:25:59;;;;;;;;;;;35.00;99.90;;;;;;5071898;28;19974;-72
2023/09/05 12:28:25;;;;;;;;;;;35.10;99.90;;;;;;5057160;28;19925;-72
2023/09/05 12:30:53;;;;;;;;;;;35.30;99.90;;;;;;5068863;28;19924;-72
2023/09/05 12:33:19;;;;;;;;;;;35.50;99.90;;;;;;5068578;28;20019;-72
2023/09/05 12:35:45;;;;;;;;;;;35.40;99.90;;;;;;5070426;28;20378;-72
2023/09/05 12:38:10;;;;;;;;;;;35.40;99.90;;;;;;5070465;28;20023;-72
2023/09/05 12:40:37;;;;;;;;;;;35.50;99.90;;;;;;5070526;28;19928;-72
2023/09/05 12:43:03;;;;;;;;;;;35.70;99.90;;;;;;5070251;28;20450;-72
2023/09/05 12:45:29;;;;;;;;;;;35.90;99.90;;;;;;5070218;28;20373;-72
2023/09/05 12:47:54;;;;;;;;;;;36.10;99.90;;;;;;5070520;28;19976;-72
2023/09/05 12:50:30;;;;;;;;;;;36.30;99.90;;;;;;5070276;28;19982;-72
2023/09/05 12:52:56;;;;;;;;;;;36.40;99.90;;;;;;5070883;28;19924;-72
2023/09/05 12:55:22;;;;;;;;;;;36.40;99.90;;;;;;5070028;28;19928;-72
2023/09/05 12:57:48;;;;;;;;;;;36.60;99.90;;;;;;5070902;28;19969;-72
2023/09/05 13:00:14;;;;;;;;;;;36.80;99.90;;;;;;5070361;28;19999;-72
2023/09/05 13:02:40;;;;;;;;;;;37.00;99.90;;;;;;5052770;28;19924;-72
2023/09/05 13:05:06;;;;;;;;;;;37.40;99.90;;;;;;5063889;28;19954;-72
2023/09/05 13:07:32;;;;;;;;;;;37.60;99.90;;;;;;5066698;28;20022;-72
2023/09/05 13:09:58;;;;;;;;;;;37.70;99.90;;;;;;5069712;28;20055;-72
2023/09/05 13:12:23;;;;;;;;;;;37.80;99.90;;;;;;5071398;28;20287;-72
2023/09/05 13:14:49;;;;;;;;;;;37.70;99.90;;;;;;5070094;28;19936;-72
2023/09/05 13:17:15;;;;;;;;;;;37.70;99.90;;;;;;5072633;28;20297;-72
2023/09/05 13:19:41;;;;;;;;;;;37.80;99.90;;;;;;5071415;28;19925;-72
2023/09/05 13:22:07;;;;;;;1.85;0.90;;;38.00;99.90;;;;;;5070305;28;19970;-72
2023/09/05 13:24:32;;;;;;;3.60;1.20;;;38.20;99.90;;;;;;5067861;28;20407;-72
2023/09/05 13:26:59;;;;;;;2.73;1.13;;;38.40;99.90;;;;;;5072042;28;20415;-72
2023/09/05 13:29:25;;;;;;;2.78;0.93;;;38.80;99.90;;;;;;5073013;28;20048;-72
2023/09/05 13:31:50;;;;;;;;;;;39.00;99.90;;;;;;5073041;28;20070;-72
2023/09/05 13:34:16;;;;;;;4.78;1.10;;;39.10;99.90;;;;;;5073105;28;20437;-72
2023/09/05 13:36:42;;;;;;;2.95;1.20;;;39.20;99.90;;;;;;5073293;28;20491;-72
2023/09/05 13:39:09;;;;;;;2.97;1.23;;;39.20;99.90;;;;;;5074683;28;20067;-72
2023/09/05 13:41:35;;;;;;;4.13;1.13;;;39.10;99.90;;;;;;5076540;28;20047;-72
2023/09/05 13:44:01;;;;;;;7.68;1.00;;;39.10;99.90;;;;;;5072745;28;20051;-71
2023/09/05 13:46:27;;;;;;;4.22;1.50;;;39.10;99.90;;;;;;5076962;28;20053;-72
2023/09/05 13:48:52;;;;;;;2.50;1.13;;;39.00;99.90;;;;;;5063889;28;20043;-72
2023/09/05 13:51:29;;;;;;;2.42;1.20;;;39.00;99.90;;;;;;5076351;28;20037;-71
2023/09/05 13:53:55;;;;;;;4.07;0.93;;;39.00;99.90;;;;;;5064353;28;20041;-72
2023/09/05 13:56:22;;;;;;;;;;;39.00;99.90;;;;;;5062725;28;20171;-71
2023/09/05 13:58:48;;;;;;;;;;;38.90;99.90;;;;;;5073086;28;20011;-72
2023/09/05 14:01:13;;;;;;;;;;;38.90;99.90;;;;;;5075884;28;19980;-72
2023/09/05 14:03:39;;;;;;;3.38;0.98;;;38.80;99.90;;;;;;5063633;28;19947;-72
2023/09/05 14:06:05;;;;;;;3.05;0.90;;;38.60;99.90;;;;;;5073724;28;20402;-72
2023/09/05 14:08:31;;;;;;;3.23;0.90;;;38.60;99.90;;;;;;5072312;28;20754;-71
2023/09/05 14:10:57;;;;;;;;;;;38.60;99.90;;;;;;5077679;28;20127;-72
2023/09/05 14:13:22;;;;;;;;;;;38.10;99.90;;;;;;5075538;28;20046;-72
2023/09/05 14:15:48;;;;;;;;;;;37.20;99.90;;;;;;5077712;28;19924;-71